sensor_id;sensor_type;location;lat;lon;timestamp;P1;durP1;ratioP1;P2;durP2;ratioP2
79539;SDS011;74475;52.122;5.406;2023-12-20T00:01:44;5.85;;;2.67;;
79539;SDS011;74475;52.122;5.406;2023-12-20T00:04:10;4.82;;;2.97;;
79539;SDS011;74475;52.122;5.406;2023-12-20T00:06:37;6.00;;;2.88;;
79539;SDS011;74475;52.122;5.406;2023-12-20T00:09:04;4.13;;;2.47;;
79539;SDS011;74475;52.122;5.406;2023-12-20T00:11:30;4.65;;;2.35;;
79539;SDS011;74475;52.122;5.406;2023-12-20T00:13:56;7.20;;;3.47;;
79539;SDS011;74475;52.122;5.406;2023-12-20T00:16:23;5.28;;;2.72;;
79539;SDS011;74475;52.122;5.406;2023-12-20T00:18:49;5.53;;;2.85;;
79539;SDS011;74475;52.122;5.406;2023-12-20T00:21:16;5.47;;;2.40;;
79539;SDS011;74475;52.122;5.406;2023-12-20T00:23:42;5.63;;;2.47;;
79539;SDS011;74475;52.122;5.406;2023-12-20T00:26:09;4.47;;;2.55;;
79539;SDS011;74475;52.122;5.406;2023-12-20T00:28:35;5.28;;;3.10;;
79539;SDS011;74475;52.122;5.406;2023-12-20T00:31:01;5.60;;;2.67;;
79539;SDS011;74475;52.122;5.406;2023-12-20T00:33:28;4.78;;;2.13;;
79539;SDS011;74475;52.122;5.406;2023-12-20T00:35:55;4.47;;;2.20;;
79539;SDS011;74475;52.122;5.406;2023-12-20T00:38:21;4.10;;;2.10;;
79539;SDS011;74475;52.122;5.406;2023-12-20T00:40:49;5.45;;;2.35;;
79539;SDS011;74475;52.122;5.406;2023-12-20T00:43:16;3.33;;;2.38;;
79539;SDS011;74475;52.122;5.406;2023-12-20T00:45:42;4.90;;;2.15;;
79539;SDS011;74475;52.122;5.406;2023-12-20T00:48:09;4.47;;;2.25;;
79539;SDS011;74475;52.122;5.406;2023-12-20T00:50:35;6.32;;;2.60;;
79539;SDS011;74475;52.122;5.406;2023-12-20T00:53:02;3.83;;;2.47;;
79539;SDS011;74475;52.122;5.406;2023-12-20T00:55:29;5.43;;;2.78;;
79539;SDS011;74475;52.122;5.406;2023-12-20T00:57:55;5.63;;;2.10;;
79539;SDS011;74475;52.122;5.406;2023-12-20T01:00:22;4.43;;;2.40;;
79539;SDS011;74475;52.122;5.406;2023-12-20T01:02:48;3.53;;;2.10;;
79539;SDS011;74475;52.122;5.406;2023-12-20T01:05:15;4.72;;;2.33;;
79539;SDS011;74475;52.122;5.406;2023-12-20T01:07:43;5.30;;;2.28;;
79539;SDS011;74475;52.122;5.406;2023-12-20T01:10:10;6.05;;;2.42;;
79539;SDS011;74475;52.122;5.406;2023-12-20T01:12:37;4.85;;;2.30;;
79539;SDS011;74475;52.122;5.406;2023-12-20T01:15:03;4.47;;;2.20;;
79539;SDS011;74475;52.122;5.406;2023-12-20T01:17:30;3.95;;;2.05;;
79539;SDS011;74475;52.122;5.406;2023-12-20T01:19:56;4.53;;;2.03;;
79539;SDS011;74475;52.122;5.406;2023-12-20T01:22:24;4.55;;;2.28;;
79539;SDS011;74475;52.122;5.406;2023-12-20T01:24:50;4.82;;;2.10;;
79539;SDS011;74475;52.122;5.406;2023-12-20T01:27:17;3.58;;;1.63;;
79539;SDS011;74475;52.122;5.406;2023-12-20T01:29:43;4.97;;;2.20;;
79539;SDS011;74475;52.122;5.406;2023-12-20T01:32:10;4.55;;;1.90;;
79539;SDS011;74475;52.122;5.406;2023-12-20T01:34:36;4.97;;;2.20;;
79539;SDS011;74475;52.122;5.406;2023-12-20T01:37:03;6.25;;;2.60;;
79539;SDS011;74475;52.122;5.406;2023-12-20T01:39:30;4.85;;;2.13;;
79539;SDS011;74475;52.122;5.406;2023-12-20T01:41:56;3.05;;;1.75;;
79539;SDS011;74475;52.122;5.406;2023-12-20T01:44:23;3.72;;;1.95;;
79539;SDS011;74475;52.122;5.406;2023-12-20T01:46:49;6.30;;;2.30;;
79539;SDS011;74475;52.122;5.406;2023-12-20T01:49:16;4.18;;;2.10;;
79539;SDS011;74475;52.122;5.406;2023-12-20T01:51:43;3.03;;;1.80;;
79539;SDS011;74475;52.122;5.406;2023-12-20T01:54:10;4.32;;;1.90;;
79539;SDS011;74475;52.122;5.406;2023-12-20T01:56:36;3.20;;;2.00;;
79539;SDS011;74475;52.122;5.406;2023-12-20T01:59:04;4.00;;;1.92;;
79539;SDS011;74475;52.122;5.406;2023-12-20T02:01:31;4.40;;;2.03;;
79539;SDS011;74475;52.122;5.406;2023-12-20T02:03:58;4.15;;;1.83;;
79539;SDS011;74475;52.122;5.406;2023-12-20T02:06:26;3.40;;;1.88;;
79539;SDS011;74475;52.122;5.406;2023-12-20T02:08:57;6.43;;;1.85;;
79539;SDS011;74475;52.122;5.406;2023-12-20T02:11:24;4.38;;;2.00;;
79539;SDS011;74475;52.122;5.406;2023-12-20T02:13:51;4.03;;;1.85;;
79539;SDS011;74475;52.122;5.406;2023-12-20T02:16:18;4.00;;;1.63;;
79539;SDS011;74475;52.122;5.406;2023-12-20T02:18:45;4.15;;;1.92;;
79539;SDS011;74475;52.122;5.406;2023-12-20T02:21:11;4.13;;;1.85;;
79539;SDS011;74475;52.122;5.406;2023-12-20T02:23:38;3.75;;;1.50;;
79539;SDS011;74475;52.122;5.406;2023-12-20T02:26:04;4.40;;;2.33;;
79539;SDS011;74475;52.122;5.406;2023-12-20T02:28:32;5.85;;;1.80;;
79539;SDS011;74475;52.122;5.406;2023-12-20T02:31:00;4.65;;;1.80;;
79539;SDS011;74475;52.122;5.406;2023-12-20T02:33:27;5.82;;;1.95;;
79539;SDS011;74475;52.122;5.406;2023-12-20T02:35:53;3.15;;;1.50;;
79539;SDS011;74475;52.122;5.406;2023-12-20T02:38:20;4.47;;;1.80;;
79539;SDS011;74475;52.122;5.406;2023-12-20T02:40:46;3.78;;;2.00;;
79539;SDS011;74475;52.122;5.406;2023-12-20T02:43:15;5.55;;;1.63;;
79539;SDS011;74475;52.122;5.406;2023-12-20T02:45:42;3.22;;;1.80;;
79539;SDS011;74475;52.122;5.406;2023-12-20T02:48:08;4.60;;;1.73;;
79539;SDS011;74475;52.122;5.406;2023-12-20T02:50:35;5.07;;;1.90;;
79539;SDS011;74475;52.122;5.406;2023-12-20T02:53:01;2.25;;;1.35;;
79539;SDS011;74475;52.122;5.406;2023-12-20T02:55:28;2.63;;;1.63;;
79539;SDS011;74475;52.122;5.406;2023-12-20T02:57:54;3.17;;;1.55;;
79539;SDS011;74475;52.122;5.406;2023-12-20T03:00:21;3.33;;;1.30;;
79539;SDS011;74475;52.122;5.406;2023-12-20T03:02:47;4.80;;;1.63;;
79539;SDS011;74475;52.122;5.406;2023-12-20T03:05:14;4.63;;;1.55;;
79539;SDS011;74475;52.122;5.406;2023-12-20T03:07:41;2.63;;;1.40;;
79539;SDS011;74475;52.122;5.406;2023-12-20T03:10:07;5.15;;;1.67;;
79539;SDS011;74475;52.122;5.406;2023-12-20T03:12:45;2.78;;;1.60;;
79539;SDS011;74475;52.122;5.406;2023-12-20T03:15:12;4.15;;;1.58;;
79539;SDS011;74475;52.122;5.406;2023-12-20T03:17:38;3.67;;;1.52;;
79539;SDS011;74475;52.122;5.406;2023-12-20T03:20:05;3.13;;;1.40;;
79539;SDS011;74475;52.122;5.406;2023-12-20T03:22:32;2.85;;;1.42;;
79539;SDS011;74475;52.122;5.406;2023-12-20T03:24:58;4.05;;;1.90;;
79539;SDS011;74475;52.122;5.406;2023-12-20T03:27:25;2.97;;;1.50;;
79539;SDS011;74475;52.122;5.406;2023-12-20T03:29:51;3.33;;;1.55;;
79539;SDS011;74475;52.122;5.406;2023-12-20T03:32:18;4.15;;;1.40;;
79539;SDS011;74475;52.122;5.406;2023-12-20T03:34:44;4.10;;;1.85;;
79539;SDS011;74475;52.122;5.406;2023-12-20T03:37:11;3.78;;;1.35;;
79539;SDS011;74475;52.122;5.406;2023-12-20T03:39:37;3.78;;;1.40;;
79539;SDS011;74475;52.122;5.406;2023-12-20T03:42:04;3.53;;;1.45;;
79539;SDS011;74475;52.122;5.406;2023-12-20T03:44:30;4.13;;;1.70;;
79539;SDS011;74475;52.122;5.406;2023-12-20T03:46:57;3.28;;;1.40;;
79539;SDS011;74475;52.122;5.406;2023-12-20T03:49:23;4.03;;;1.50;;
79539;SDS011;74475;52.122;5.406;2023-12-20T03:51:50;5.63;;;1.58;;
79539;SDS011;74475;52.122;5.406;2023-12-20T03:54:16;3.92;;;1.58;;
79539;SDS011;74475;52.122;5.406;2023-12-20T03:56:43;3.03;;;1.55;;
79539;SDS011;74475;52.122;5.406;2023-12-20T03:59:09;2.85;;;1.40;;
79539;SDS011;74475;52.122;5.406;2023-12-20T04:01:35;4.88;;;1.67;;
79539;SDS011;74475;52.122;5.406;2023-12-20T04:04:02;3.35;;;1.27;;
79539;SDS011;74475;52.122;5.406;2023-12-20T04:06:29;2.65;;;1.30;;
79539;SDS011;74475;52.122;5.406;2023-12-20T04:08:56;4.22;;;1.30;;
79539;SDS011;74475;52.122;5.406;2023-12-20T04:11:22;3.53;;;1.50;;
79539;SDS011;74475;52.122;5.406;2023-12-20T04:13:49;3.72;;;1.40;;
79539;SDS011;74475;52.122;5.406;2023-12-20T04:16:15;4.40;;;1.40;;
79539;SDS011;74475;52.122;5.406;2023-12-20T04:18:42;3.58;;;1.83;;
79539;SDS011;74475;52.122;5.406;2023-12-20T04:21:08;3.72;;;1.65;;
79539;SDS011;74475;52.122;5.406;2023-12-20T04:23:35;3.80;;;1.45;;
79539;SDS011;74475;52.122;5.406;2023-12-20T04:26:01;2.17;;;1.33;;
79539;SDS011;74475;52.122;5.406;2023-12-20T04:28:28;4.03;;;1.50;;
79539;SDS011;74475;52.122;5.406;2023-12-20T04:30:56;4.53;;;1.33;;
79539;SDS011;74475;52.122;5.406;2023-12-20T04:33:23;3.90;;;1.40;;
79539;SDS011;74475;52.122;5.406;2023-12-20T04:35:49;3.05;;;1.10;;
79539;SDS011;74475;52.122;5.406;2023-12-20T04:38:16;3.30;;;1.25;;
79539;SDS011;74475;52.122;5.406;2023-12-20T04:40:42;4.30;;;1.10;;
79539;SDS011;74475;52.122;5.406;2023-12-20T04:43:09;3.95;;;1.17;;
79539;SDS011;74475;52.122;5.406;2023-12-20T04:45:35;3.05;;;1.27;;
79539;SDS011;74475;52.122;5.406;2023-12-20T04:48:02;4.95;;;1.58;;
79539;SDS011;74475;52.122;5.406;2023-12-20T04:50:30;7.07;;;1.33;;
79539;SDS011;74475;52.122;5.406;2023-12-20T04:52:57;2.75;;;1.40;;
79539;SDS011;74475;52.122;5.406;2023-12-20T04:55:23;4.50;;;1.63;;
79539;SDS011;74475;52.122;5.406;2023-12-20T04:57:50;4.18;;;1.55;;
79539;SDS011;74475;52.122;5.406;2023-12-20T05:00:16;2.58;;;1.33;;
79539;SDS011;74475;52.122;5.406;2023-12-20T05:02:43;3.90;;;1.33;;
79539;SDS011;74475;52.122;5.406;2023-12-20T05:05:10;4.25;;;1.30;;
79539;SDS011;74475;52.122;5.406;2023-12-20T05:07:36;3.22;;;1.42;;
79539;SDS011;74475;52.122;5.406;2023-12-20T05:10:03;4.20;;;1.30;;
79539;SDS011;74475;52.122;5.406;2023-12-20T05:12:34;5.47;;;1.30;;
79539;SDS011;74475;52.122;5.406;2023-12-20T05:15:01;4.00;;;1.50;;
79539;SDS011;74475;52.122;5.406;2023-12-20T05:17:27;3.58;;;1.30;;
79539;SDS011;74475;52.122;5.406;2023-12-20T05:19:53;2.72;;;0.98;;
79539;SDS011;74475;52.122;5.406;2023-12-20T05:22:20;4.13;;;1.30;;
79539;SDS011;74475;52.122;5.406;2023-12-20T05:24:47;3.55;;;1.35;;
79539;SDS011;74475;52.122;5.406;2023-12-20T05:27:13;5.85;;;1.30;;
79539;SDS011;74475;52.122;5.406;2023-12-20T05:29:39;4.70;;;1.33;;
79539;SDS011;74475;52.122;5.406;2023-12-20T05:32:06;4.18;;;1.30;;
79539;SDS011;74475;52.122;5.406;2023-12-20T05:34:33;2.85;;;1.30;;
79539;SDS011;74475;52.122;5.406;2023-12-20T05:36:59;4.05;;;1.23;;
79539;SDS011;74475;52.122;5.406;2023-12-20T05:39:28;4.28;;;1.55;;
79539;SDS011;74475;52.122;5.406;2023-12-20T05:41:54;3.33;;;1.20;;
79539;SDS011;74475;52.122;5.406;2023-12-20T05:44:20;3.55;;;1.15;;
79539;SDS011;74475;52.122;5.406;2023-12-20T05:46:47;4.18;;;1.38;;
79539;SDS011;74475;52.122;5.406;2023-12-20T05:49:13;5.22;;;1.17;;
79539;SDS011;74475;52.122;5.406;2023-12-20T05:51:40;5.00;;;1.40;;
79539;SDS011;74475;52.122;5.406;2023-12-20T05:54:07;3.55;;;1.02;;
79539;SDS011;74475;52.122;5.406;2023-12-20T05:56:35;4.15;;;1.20;;
79539;SDS011;74475;52.122;5.406;2023-12-20T05:59:01;3.03;;;1.23;;
79539;SDS011;74475;52.122;5.406;2023-12-20T06:01:28;3.13;;;1.20;;
79539;SDS011;74475;52.122;5.406;2023-12-20T06:03:55;3.10;;;1.40;;
79539;SDS011;74475;52.122;5.406;2023-12-20T06:06:21;4.00;;;1.13;;
79539;SDS011;74475;52.122;5.406;2023-12-20T06:08:48;4.57;;;1.40;;
79539;SDS011;74475;52.122;5.406;2023-12-20T06:11:14;5.97;;;1.58;;
79539;SDS011;74475;52.122;5.406;2023-12-20T06:13:41;4.25;;;1.60;;
79539;SDS011;74475;52.122;5.406;2023-12-20T06:16:07;2.78;;;1.02;;
79539;SDS011;74475;52.122;5.406;2023-12-20T06:18:34;4.57;;;1.50;;
79539;SDS011;74475;52.122;5.406;2023-12-20T06:21:00;5.93;;;1.27;;
79539;SDS011;74475;52.122;5.406;2023-12-20T06:23:28;3.55;;;1.17;;
79539;SDS011;74475;52.122;5.406;2023-12-20T06:25:55;2.92;;;1.20;;
79539;SDS011;74475;52.122;5.406;2023-12-20T06:28:21;3.50;;;1.20;;
79539;SDS011;74475;52.122;5.406;2023-12-20T06:30:49;4.88;;;1.13;;
79539;SDS011;74475;52.122;5.406;2023-12-20T06:33:16;5.22;;;1.08;;
79539;SDS011;74475;52.122;5.406;2023-12-20T06:35:42;4.13;;;1.58;;
79539;SDS011;74475;52.122;5.406;2023-12-20T06:38:09;5.60;;;1.13;;
79539;SDS011;74475;52.122;5.406;2023-12-20T06:40:35;4.60;;;1.10;;
79539;SDS011;74475;52.122;5.406;2023-12-20T06:43:02;3.17;;;1.10;;
79539;SDS011;74475;52.122;5.406;2023-12-20T06:45:41;3.20;;;1.33;;
79539;SDS011;74475;52.122;5.406;2023-12-20T06:48:08;3.20;;;1.15;;
79539;SDS011;74475;52.122;5.406;2023-12-20T06:50:37;4.18;;;1.35;;
79539;SDS011;74475;52.122;5.406;2023-12-20T06:53:06;4.82;;;1.30;;
79539;SDS011;74475;52.122;5.406;2023-12-20T06:55:35;4.30;;;1.15;;
79539;SDS011;74475;52.122;5.406;2023-12-20T06:58:02;3.85;;;1.20;;
79539;SDS011;74475;52.122;5.406;2023-12-20T07:00:29;4.32;;;1.25;;
79539;SDS011;74475;52.122;5.406;2023-12-20T07:02:56;3.95;;;1.10;;
79539;SDS011;74475;52.122;5.406;2023-12-20T07:05:24;3.60;;;1.33;;
79539;SDS011;74475;52.122;5.406;2023-12-20T07:07:50;3.42;;;1.10;;
79539;SDS011;74475;52.122;5.406;2023-12-20T07:10:17;4.13;;;1.20;;
79539;SDS011;74475;52.122;5.406;2023-12-20T07:12:44;6.32;;;1.42;;
79539;SDS011;74475;52.122;5.406;2023-12-20T07:15:10;4.13;;;1.17;;
79539;SDS011;74475;52.122;5.406;2023-12-20T07:17:37;4.43;;;1.50;;
79539;SDS011;74475;52.122;5.406;2023-12-20T07:20:04;3.85;;;1.23;;
79539;SDS011;74475;52.122;5.406;2023-12-20T07:22:33;3.67;;;1.10;;
79539;SDS011;74475;52.122;5.406;2023-12-20T07:25:00;5.65;;;1.40;;
